Time;durP1;ratioP1;P1;durP2;ratioP2;P2;SDS_P1;SDS_P2;PMS_P1;PMS_P2;Temp;Humidity;BMP_temperature;BMP_pressure;BME280_temperature;BME280_humidity;BME280_pressure;Samples;Min_cycle;Max_cycle;Signal;HPM_P1;HPM_P2
2023/12/08 00:00:51;;;;;;;18.75;13.98;;;;;;;2.01;100.00;100733.91;5019802;28;20049;-71
2023/12/08 00:03:18;;;;;;;18.13;13.50;;;;;;;2.03;100.00;100733.91;5019587;28;20052;-72
2023/12/08 00:05:45;;;;;;;17.83;13.25;;;;;;;2.05;100.00;100737.38;5035568;28;20061;-71
2023/12/08 00:08:12;;;;;;;19.58;13.55;;;;;;;2.03;100.00;100726.09;5046666;28;20048;-72
2023/12/08 00:10:39;;;;;;;18.85;13.68;;;;;;;2.06;100.00;100725.22;5026172;28;20053;-72
2023/12/08 00:13:06;;;;;;;18.40;13.20;;;;;;;2.06;100.00;100720.03;5019299;28;20059;-71
2023/12/08 00:15:33;;;;;;;19.75;13.45;;;;;;;2.07;100.00;100703.56;5044191;28;20055;-72
2023/12/08 00:18:01;;;;;;;17.80;13.25;;;;;;;2.09;100.00;100700.09;5027630;28;20052;-71
2023/12/08 00:20:28;;;;;;;13.27;8.20;;;;;;;2.07;100.00;100704.44;5028632;28;20049;-71
2023/12/08 00:22:55;;;;;;;18.08;12.88;;;;;;;2.09;100.00;100701.84;5028475;28;20041;-71
2023/12/08 00:25:22;;;;;;;17.38;12.52;;;;;;;2.11;100.00;100693.16;5029472;28;20509;-71
2023/12/08 00:27:49;;;;;;;16.05;12.40;;;;;;;2.13;100.00;100672.38;5028961;28;20049;-70
2023/12/08 00:30:16;;;;;;;16.73;12.48;;;;;;;2.13;100.00;100657.63;5029705;28;20432;-71
2023/12/08 00:32:43;;;;;;;19.20;13.55;;;;;;;2.12;100.00;100655.88;5024102;28;20629;-71
2023/12/08 00:35:11;;;;;;;16.05;12.60;;;;;;;2.11;100.00;100646.34;5028698;28;20119;-71
2023/12/08 00:37:38;;;;;;;16.38;12.50;;;;;;;2.11;100.00;100641.16;5029783;28;20042;-71
2023/12/08 00:40:07;;;;;;;15.82;12.63;;;;;;;2.09;100.00;100632.47;5029099;28;20133;-71
2023/12/08 00:42:34;;;;;;;15.93;12.20;;;;;;;2.12;100.00;100622.09;5029507;28;20580;-71
2023/12/08 00:45:01;;;;;;;17.70;12.70;;;;;;;2.14;100.00;100616.88;5043858;28;20044;-70
2023/12/08 00:47:28;;;;;;;17.02;12.32;;;;;;;2.15;100.00;100613.41;5029150;28;20065;-70
2023/12/08 00:49:57;;;;;;;17.95;12.77;;;;;;;2.14;100.00;100616.88;5027877;28;20071;-71
2023/12/08 00:52:24;;;;;;;16.75;12.15;;;;;;;2.15;100.00;100644.63;5029918;28;20049;-71
2023/12/08 00:54:51;;;;;;;16.08;12.32;;;;;;;2.16;100.00;100634.22;5029128;28;20052;-71
2023/12/08 00:57:18;;;;;;;18.00;12.75;;;;;;;2.15;100.00;100627.28;5030608;28;20056;-71
2023/12/08 00:59:45;;;;;;;16.83;12.23;;;;;;;2.14;100.00;100630.75;5043941;28;20680;-71
2023/12/08 01:02:13;;;;;;;15.57;11.82;;;;;;;2.13;100.00;100639.41;5030244;28;20049;-71
2023/12/08 01:04:40;;;;;;;16.85;11.80;;;;;;;2.14;100.00;100648.06;5029968;28;20522;-71
2023/12/08 01:07:09;;;;;;;16.95;12.18;;;;;;;2.14;100.00;100646.38;5048345;28;20049;-71
2023/12/08 01:09:36;;;;;;;15.63;11.82;;;;;;;2.14;100.00;100650.69;5050491;28;20040;-71
2023/12/08 01:12:04;;;;;;;15.30;11.85;;;;;;;2.14;100.00;100651.56;5028239;28;20045;-71
2023/12/08 01:14:31;;;;;;;15.45;11.75;;;;;;;2.16;100.00;100646.34;5034704;28;20040;-71
2023/12/08 01:16:58;;;;;;;15.48;11.85;;;;;;;2.16;100.00;100652.44;5049508;28;20041;-71
2023/12/08 01:19:25;;;;;;;15.48;11.65;;;;;;;2.17;100.00;100653.28;5029043;28;20634;-71
2023/12/08 01:21:52;;;;;;;15.25;11.35;;;;;;;2.14;100.00;100643.75;5029294;28;20049;-71
2023/12/08 01:24:19;;;;;;;15.00;10.88;;;;;;;2.14;100.00;100655.88;5044624;28;20128;-71
2023/12/08 01:26:46;;;;;;;14.77;8.38;;;;;;;2.14;100.00;100640.28;5028176;28;20076;-71
2023/12/08 01:29:14;;;;;;;15.82;11.23;;;;;;;2.14;100.00;100646.38;5029785;28;20055;-71
2023/12/08 01:31:41;;;;;;;14.60;11.32;;;;;;;2.18;100.00;100636.81;5029204;28;20046;-71
2023/12/08 01:34:08;;;;;;;15.70;11.95;;;;;;;2.18;100.00;100636.81;5028288;28;20045;-71
2023/12/08 01:36:35;;;;;;;16.10;11.43;;;;;;;2.21;100.00;100642.03;5028681;28;20050;-71
2023/12/08 01:39:10;;;;;;;15.50;11.73;;;;;;;2.22;100.00;100629.88;5034347;28;20382;-71
2023/12/08 01:41:38;;;;;;;14.75;11.13;;;;;;;2.23;100.00;100629.91;5035796;28;20037;-70
2023/12/08 01:44:05;;;;;;;14.45;11.65;;;;;;;2.28;100.00;100632.50;5028560;28;20132;-71
2023/12/08 01:46:36;;;;;;;15.40;11.50;;;;;;;2.28;100.00;100635.13;5027408;28;20069;-71
2023/12/08 01:49:05;;;;;;;14.68;10.73;;;;;;;2.28;100.00;100629.91;5027961;28;20123;-71
2023/12/08 01:51:33;;;;;;;15.98;11.30;;;;;;;2.30;100.00;100633.34;5028567;28;20454;-71
2023/12/08 01:54:01;;;;;;;15.73;11.77;;;;;;;2.31;100.00;100633.38;5028281;28;20708;-71
2023/12/08 01:56:28;;;;;;;13.88;10.57;;;;;;;2.33;100.00;100622.97;5041156;28;20041;-71
2023/12/08 01:58:56;;;;;;;13.65;11.00;;;;;;;2.32;100.00;100622.09;5049553;28;20136;-71
2023/12/08 02:01:23;;;;;;;15.48;12.20;;;;;;;2.35;100.00;100636.84;5047183;28;20131;-71
2023/12/08 02:03:51;;;;;;;14.13;10.52;;;;;;;2.34;100.00;100624.69;5046720;28;20136;-71
2023/12/08 02:06:19;;;;;;;16.88;12.63;;;;;;;2.35;100.00;100622.94;5035541;28;20409;-71
2023/12/08 02:08:49;;;;;;;14.57;11.07;;;;;;;2.35;100.00;100620.34;5047203;28;20124;-71
2023/12/08 02:11:18;;;;;;;14.20;11.20;;;;;;;2.33;100.00;100609.94;5034117;28;20453;-71
2023/12/08 02:13:46;;;;;;;15.02;11.95;;;;;;;2.31;100.00;100601.28;5026978;28;20092;-71
2023/12/08 02:16:25;;;;;;;14.85;10.95;;;;;;;2.30;100.00;100597.81;5028447;28;20082;-71
2023/12/08 02:18:55;;;;;;;16.45;11.55;;;;;;;2.28;100.00;100596.09;5043737;28;20053;-71
2023/12/08 02:21:23;;;;;;;14.32;10.85;;;;;;;2.21;100.00;100599.53;5027833;28;20069;-70
2023/12/08 02:23:50;;;;;;;15.65;11.80;;;;;;;2.16;100.00;100584.81;5027905;28;20479;-71
2023/12/08 02:26:19;;;;;;;15.95;11.98;;;;;;;2.11;100.00;100589.13;5048946;28;20644;-71
2023/12/08 02:28:47;;;;;;;16.67;12.02;;;;;;;2.10;100.00;100584.78;5048874;28;20133;-71
2023/12/08 02:31:22;;;;;;;17.13;12.32;;;;;;;2.06;100.00;100570.06;5031800;28;20134;-71
2023/12/08 02:33:53;;;;;;;13.40;8.30;;;;;;;2.03;100.00;100577.00;5041859;28;20603;-71
2023/12/08 02:36:21;;;;;;;16.42;12.68;;;;;;;1.97;100.00;100572.66;5028189;28;20548;-71
2023/12/08 02:38:51;;;;;;;15.77;12.27;;;;;;;1.95;100.00;100554.44;5026000;28;20088;-71
2023/12/08 02:41:18;;;;;;;17.38;13.23;;;;;;;1.93;100.00;100550.13;5020344;28;20435;-71
2023/12/08 02:43:46;;;;;;;17.02;13.30;;;;;;;1.91;100.00;100544.03;5025100;28;20053;-72
2023/12/08 02:46:14;;;;;;;18.58;13.77;;;;;;;1.89;100.00;100535.38;5033897;28;20098;-71
2023/12/08 02:48:41;;;;;;;18.23;13.40;;;;;;;1.85;100.00;100537.09;5047612;28;20655;-71
2023/12/08 02:51:19;;;;;;;18.90;12.77;;;;;;;1.84;100.00;100536.25;5024288;28;20132;-71
2023/12/08 02:53:46;;;;;;;16.70;9.63;;;;;;;1.80;100.00;100539.72;5031714;28;20501;-72
2023/12/08 02:56:13;;;;;;;20.48;14.20;;;;;;;1.80;100.00;100547.50;5039695;28;20048;-72
2023/12/08 02:58:41;;;;;;;18.75;14.23;;;;;;;1.80;100.00;100531.06;5023957;28;20514;-72
2023/12/08 03:01:07;;;;;;;18.73;13.70;;;;;;;1.80;100.00;100537.09;5025522;28;20470;-71
2023/12/08 03:03:35;;;;;;;20.23;14.57;;;;;;;1.75;100.00;100531.06;5026363;28;20497;-72
2023/12/08 03:06:02;;;;;;;18.30;13.90;;;;;;;1.74;100.00;100521.50;5022918;28;20049;-72
2023/12/08 03:08:30;;;;;;;18.83;10.35;;;;;;;1.72;100.00;100517.19;5014553;28;20049;-72
2023/12/08 03:10:57;;;;;;;20.48;14.50;;;;;;;1.71;100.00;100511.09;5038759;28;20083;-72
2023/12/08 03:13:24;;;;;;;19.95;14.57;;;;;;;1.70;100.00;100502.47;5030494;28;20056;-72
2023/12/08 03:15:51;;;;;;;20.23;14.13;;;;;;;1.69;100.00;100505.91;5026885;28;20186;-72
2023/12/08 03:18:18;;;;;;;18.80;14.68;;;;;;;1.69;100.00;100505.03;5024277;28;20168;-72
2023/12/08 03:20:45;;;;;;;21.67;14.70;;;;;;;1.68;100.00;100486.00;5026903;28;20394;-72
2023/12/08 03:23:12;;;;;;;19.38;14.45;;;;;;;1.66;100.00;100482.53;5030973;28;20034;-72
2023/12/08 03:25:39;;;;;;;21.80;15.02;;;;;;;1.64;100.00;100467.81;5029445;28;20073;-72
2023/12/08 03:28:06;;;;;;;22.02;13.90;;;;;;;1.62;100.00;100482.50;5038764;28;20067;-72
2023/12/08 03:30:33;;;;;;;23.77;15.98;;;;;;;1.59;100.00;100474.72;5052441;28;20056;-71
2023/12/08 03:33:00;;;;;;;22.25;15.80;;;;;;;1.60;100.00;100479.94;5020408;28;20037;-71
2023/12/08 03:35:27;;;;;;;22.75;14.75;;;;;;;1.61;100.00;100491.19;5031405;28;20095;-72
2023/12/08 03:37:55;;;;;;;24.13;16.42;;;;;;;1.62;100.00;100488.59;5034918;28;20077;-72
2023/12/08 03:40:22;;;;;;;22.70;14.68;;;;;;;1.65;100.00;100492.94;5047931;28;20222;-73
2023/12/08 03:42:49;;;;;;;23.55;15.95;;;;;;;1.66;100.00;100489.47;5030645;28;20124;-72
2023/12/08 03:45:16;;;;;;;23.60;16.75;;;;;;;1.68;100.00;100491.19;5037804;28;20516;-72
2023/12/08 03:47:43;;;;;;;24.73;16.73;;;;;;;1.70;100.00;100485.97;5027717;28;20058;-73
2023/12/08 03:50:10;;;;;;;20.58;11.15;;;;;;;1.70;100.00;100502.47;5013041;28;20087;-72
2023/12/08 03:52:37;;;;;;;25.17;17.95;;;;;;;1.72;100.00;100522.38;5025584;28;20069;-72
2023/12/08 03:55:05;;;;;;;23.80;17.35;;;;;;;1.76;100.00;100530.19;5012121;28;20069;-73
2023/12/08 03:57:32;;;;;;;21.13;10.95;;;;;;;1.81;100.00;100527.59;5026263;28;20060;-72
2023/12/08 03:59:59;;;;;;;24.80;15.35;;;;;;;1.82;100.00;100531.94;5013462;28;21931;-72
2023/12/08 04:02:26;;;;;;;19.38;10.20;;;;;;;1.83;100.00;100528.47;5031281;28;20091;-72
2023/12/08 04:04:54;;;;;;;23.75;15.90;;;;;;;1.82;100.00;100506.78;5031298;28;20126;-72
2023/12/08 04:07:21;;;;;;;24.70;17.08;;;;;;;1.83;100.00;100495.53;5028106;28;20034;-72
2023/12/08 04:09:48;;;;;;;21.15;11.23;;;;;;;1.81;100.00;100502.44;5050751;28;20040;-72
2023/12/08 04:12:15;;;;;;;22.85;17.08;;;;;;;1.79;100.00;100498.97;5013373;28;20041;-72
2023/12/08 04:14:42;;;;;;;23.27;16.90;;;;;;;1.80;100.00;100494.66;5021966;28;20581;-72
2023/12/08 04:17:11;;;;;;;25.00;16.88;;;;;;;1.77;100.00;100489.44;5030675;28;20038;-72
2023/12/08 04:19:38;;;;;;;24.00;16.10;;;;;;;1.76;100.00;100501.59;5027232;28;20544;-72
2023/12/08 04:22:06;;;;;;;25.70;16.85;;;;;;;1.76;100.00;100501.59;5008483;28;20457;-72
2023/12/08 04:24:33;;;;;;;26.90;18.30;;;;;;;1.75;100.00;100507.66;5027378;28;20049;-71
2023/12/08 04:27:00;;;;;;;26.55;17.83;;;;;;;1.74;100.00;100490.31;5026301;28;20525;-71
2023/12/08 04:29:27;;;;;;;24.38;16.85;;;;;;;1.73;100.00;100478.19;5026892;28;20128;-71
2023/12/08 04:31:54;;;;;;;28.02;18.05;;;;;;;1.75;100.00;100467.78;5026258;28;20049;-71
2023/12/08 04:34:21;;;;;;;29.70;18.38;;;;;;;1.75;100.00;100472.97;5062707;28;20069;-71
2023/12/08 04:36:48;;;;;;;29.25;20.38;;;;;;;1.73;100.00;100480.78;5039959;28;20139;-72
2023/12/08 04:39:15;;;;;;;28.95;18.25;;;;;;;1.73;100.00;100480.78;5029761;28;20061;-71
2023/12/08 04:41:42;;;;;;;29.45;19.63;;;;;;;1.71;100.00;100474.72;5027936;28;20132;-71
2023/12/08 04:44:09;;;;;;;27.88;17.85;;;;;;;1.76;100.00;100490.31;5027842;28;20446;-71
2023/12/08 04:46:36;;;;;;;28.00;19.67;;;;;;;1.74;100.00;100495.53;5026914;28;20509;-72
2023/12/08 04:49:03;;;;;;;29.17;19.20;;;;;;;1.74;100.00;100498.13;5027098;28;20056;-71
2023/12/08 04:51:31;;;;;;;29.80;20.58;;;;;;;1.75;100.00;100488.56;5023564;28;20048;-72
2023/12/08 04:53:58;;;;;;;28.15;19.65;;;;;;;1.75;100.00;100489.47;5044167;28;20128;-71
2023/12/08 04:56:25;;;;;;;25.23;13.32;;;;;;;1.76;100.00;100491.19;5038360;28;20045;-72
2023/12/08 04:58:52;;;;;;;31.15;21.17;;;;;;;1.77;100.00;100490.34;5030383;28;20120;-71
2023/12/08 05:01:19;;;;;;;27.67;19.50;;;;;;;1.80;100.00;100481.66;5043961;28;20075;-72
2023/12/08 05:03:46;;;;;;;27.40;18.10;;;;;;;1.80;100.00;100473.88;5029483;28;20076;-71
2023/12/08 05:06:14;;;;;;;24.13;12.25;;;;;;;1.79;100.00;100477.34;5033617;28;20056;-72
2023/12/08 05:08:42;;;;;;;26.48;18.63;;;;;;;1.77;100.00;100486.84;5040816;28;20057;-71
2023/12/08 05:11:09;;;;;;;28.98;19.33;;;;;;;1.76;100.00;100487.72;5013454;28;20524;-71
2023/12/08 05:13:36;;;;;;;25.33;18.13;;;;;;;1.74;100.00;100492.94;5026385;28;20049;-71
2023/12/08 05:16:04;;;;;;;26.88;18.70;;;;;;;1.73;100.00;100467.81;5028593;28;20038;-71
2023/12/08 05:18:31;;;;;;;31.90;19.33;;;;;;;1.76;100.00;100464.31;5026959;28;20145;-71
2023/12/08 05:21:01;;;;;;;31.77;19.80;;;;;;;1.77;100.00;100460.88;5028537;28;20045;-71
2023/12/08 05:23:29;;;;;;;29.42;19.52;;;;;;;1.77;100.00;100461.75;5024827;28;20041;-73
2023/12/08 05:25:56;;;;;;;30.55;20.52;;;;;;;1.76;100.00;100474.72;5029629;28;20060;-73
2023/12/08 05:28:23;;;;;;;32.33;23.65;;;;;;;1.77;100.00;100479.94;5051675;28;20041;-73
2023/12/08 05:30:53;;;;;;;34.88;23.17;;;;;;;1.80;100.00;100479.06;5045716;28;20079;-72
2023/12/08 05:33:20;;;;;;;29.13;15.05;;;;;;;1.83;100.00;100479.06;5024790;28;20136;-72
2023/12/08 05:35:47;;;;;;;23.40;13.05;;;;;;;1.82;100.00;100480.78;5027201;28;20041;-72
2023/12/08 05:38:14;;;;;;;32.40;19.65;;;;;;;1.85;100.00;100485.13;5020385;28;20537;-71
2023/12/08 05:40:41;;;;;;;31.95;20.77;;;;;;;1.88;100.00;100482.53;5031863;28;20072;-72
2023/12/08 05:43:08;;;;;;;26.75;13.70;;;;;;;1.91;100.00;100476.44;5029847;28;20047;-70
2023/12/08 05:45:35;;;;;;;34.53;22.95;;;;;;;1.96;100.00;100470.38;5026166;28;20049;-71
2023/12/08 05:48:05;;;;;;;30.48;19.58;;;;;;;2.05;100.00;100463.44;5024475;28;20153;-72
2023/12/08 05:50:32;;;;;;;29.38;21.45;;;;;;;2.21;100.00;100466.88;5022630;28;20068;-72
2023/12/08 05:52:59;;;;;;;31.08;21.83;;;;;;;2.38;100.00;100483.34;5024284;28;20115;-72
2023/12/08 05:55:27;;;;;;;32.97;19.92;;;;;;;2.49;100.00;100475.50;5025815;28;20056;-72
2023/12/08 05:57:54;;;;;;;32.00;20.92;;;;;;;2.51;100.00;100478.09;5026177;28;20052;-71
2023/12/08 06:00:26;;;;;;;27.05;17.90;;;;;;;2.51;100.00;100486.78;5026121;28;20053;-70
2023/12/08 06:02:53;;;;;;;27.40;19.80;;;;;;;2.58;100.00;100480.66;5027393;28;20099;-70
2023/12/08 06:05:20;;;;;;;28.55;20.25;;;;;;;2.66;100.00;100492.78;5027260;28;20107;-70
2023/12/08 06:07:47;;;;;;;26.10;18.77;;;;;;;2.68;100.00;100499.75;5022946;28;20030;-70
2023/12/08 06:10:15;;;;;;;26.27;19.50;;;;;;;2.76;100.00;100489.28;5027417;28;20052;-70
2023/12/08 06:12:42;;;;;;;25.58;17.33;;;;;;;2.82;100.00;100488.41;5033781;28;20132;-70
2023/12/08 06:15:12;;;;;;;21.17;16.02;;;;;;;2.87;100.00;100473.63;5029761;28;20049;-70
2023/12/08 06:17:39;;;;;;;24.42;16.92;;;;;;;2.88;100.00;100489.25;5027677;28;20852;-70
2023/12/08 06:20:10;;;;;;;24.85;17.08;;;;;;;2.82;100.00;100497.09;5027439;28;20120;-71
2023/12/08 06:22:37;;;;;;;27.67;18.15;;;;;;;2.71;100.00;100504.91;5024558;28;20300;-71
2023/12/08 06:25:05;;;;;;;23.77;17.25;;;;;;;2.60;100.00;100494.56;5024551;28;20224;-71
2023/12/08 06:27:33;;;;;;;28.52;17.83;;;;;;;2.52;100.00;100500.63;5024595;28;20033;-71
2023/12/08 06:30:01;;;;;;;26.35;18.40;;;;;;;2.45;100.00;100500.66;5025194;28;20075;-71
2023/12/08 06:32:28;;;;;;;24.27;16.27;;;;;;;2.40;100.00;100494.59;5021943;28;20505;-70
2023/12/08 06:34:55;;;;;;;27.02;18.15;;;;;;;2.37;100.00;100499.81;5026446;28;20041;-70
2023/12/08 06:37:23;;;;;;;28.40;18.63;;;;;;;2.36;100.00;100494.59;5024626;28;20072;-70
2023/12/08 06:39:50;;;;;;;29.60;19.80;;;;;;;2.35;100.00;100485.94;5025494;28;20570;-70
2023/12/08 06:42:17;;;;;;;26.83;17.35;;;;;;;2.32;100.00;100483.34;5026245;28;20037;-70
2023/12/08 06:44:44;;;;;;;28.83;19.75;;;;;;;2.30;100.00;100488.56;5044572;28;20530;-71
2023/12/08 06:47:11;;;;;;;30.83;19.10;;;;;;;2.30;100.00;100493.75;5023098;28;20296;-71
2023/12/08 06:49:39;;;;;;;28.15;18.27;;;;;;;2.29;100.00;100498.97;5023174;28;20049;-70
2023/12/08 06:52:07;;;;;;;26.55;17.00;;;;;;;2.26;100.00;100499.81;5025476;28;20072;-70
2023/12/08 06:54:34;;;;;;;31.60;18.65;;;;;;;2.27;100.00;100495.50;5026465;28;20078;-70
2023/12/08 06:57:01;;;;;;;27.52;18.42;;;;;;;2.27;100.00;100500.72;5028167;28;20091;-70
2023/12/08 06:59:29;;;;;;;33.05;19.40;;;;;;;2.27;100.00;100506.75;5022847;28;20075;-71
2023/12/08 07:01:56;;;;;;;30.73;19.13;;;;;;;2.26;100.00;100502.41;5027198;28;20409;-72
2023/12/08 07:04:23;;;;;;;30.25;18.90;;;;;;;2.29;100.00;100501.56;5027966;28;20095;-71
2023/12/08 07:06:50;;;;;;;31.25;17.98;;;;;;;2.29;100.00;100502.44;5025983;28;20060;-71
2023/12/08 07:09:17;;;;;;;30.55;18.70;;;;;;;2.30;100.00;100493.75;5027614;28;20104;-71
2023/12/08 07:11:44;;;;;;;30.58;18.75;;;;;;;2.32;100.00;100485.94;5047907;28;20053;-71
2023/12/08 07:14:11;;;;;;;32.08;19.85;;;;;;;2.32;100.00;100496.34;5029816;28;20050;-71
2023/12/08 07:16:43;;;;;;;33.58;20.75;;;;;;;2.33;100.00;100498.09;5027836;28;20084;-70
2023/12/08 07:19:11;;;;;;;30.35;20.58;;;;;;;2.33;100.00;100498.09;5026929;28;20633;-71
2023/12/08 07:21:43;;;;;;;31.45;20.45;;;;;;;2.34;100.00;100492.00;5028016;28;20037;-71
2023/12/08 07:24:11;;;;;;;30.15;19.92;;;;;;;2.35;100.00;100506.75;5026117;28;20054;-71
2023/12/08 07:26:38;;;;;;;32.50;19.80;;;;;;;2.35;100.00;100498.94;5027452;28;20457;-71
2023/12/08 07:29:05;;;;;;;30.00;17.75;;;;;;;2.36;100.00;100500.69;5025889;28;20048;-70
2023/12/08 07:31:32;;;;;;;32.92;20.15;;;;;;;2.38;100.00;100513.69;5026611;28;20045;-71
2023/12/08 07:33:59;;;;;;;31.27;19.00;;;;;;;2.37;100.00;100510.22;5026947;28;20107;-70
2023/12/08 07:36:26;;;;;;;31.13;19.52;;;;;;;2.38;100.00;100505.88;5026684;28;20585;-71
2023/12/08 07:38:53;;;;;;;33.10;18.75;;;;;;;2.40;100.00;100512.81;5026528;28;20065;-71
2023/12/08 07:41:20;;;;;;;31.00;19.73;;;;;;;2.42;100.00;100516.28;5027077;28;20117;-71
2023/12/08 07:43:48;;;;;;;34.65;19.90;;;;;;;2.45;100.00;100521.47;5027157;28;20084;-71
2023/12/08 07:46:15;;;;;;;28.58;18.48;;;;;;;2.48;100.00;100525.81;5028366;28;20048;-71
2023/12/08 07:48:42;;;;;;;31.92;18.98;;;;;;;2.49;100.00;100517.97;5027683;28;20065;-72
2023/12/08 07:51:10;;;;;;;33.35;19.13;;;;;;;2.52;100.00;100532.75;5027755;28;20056;-71
2023/12/08 07:53:37;;;;;;;29.77;18.67;;;;;;;2.53;100.00;100534.47;5035514;28;20064;-71
2023/12/08 07:56:05;;;;;;;31.90;19.77;;;;;;;2.55;100.00;100539.69;5026706;28;20041;-71
2023/12/08 07:58:32;;;;;;;30.40;18.27;;;;;;;2.56;100.00;100541.41;5027539;28;20120;-71
2023/12/08 08:01:00;;;;;;;31.50;18.92;;;;;;;2.57;100.00;100532.75;5027348;28;20052;-71
2023/12/08 08:03:27;;;;;;;34.08;19.27;;;;;;;2.59;100.00;100542.28;5040337;28;20528;-71
2023/12/08 08:05:54;;;;;;;31.83;18.25;;;;;;;2.62;100.00;100550.06;5038715;28;20521;-71
2023/12/08 08:08:21;;;;;;;30.85;18.55;;;;;;;2.62;100.00;100544.88;5030580;28;20080;-71
2023/12/08 08:10:48;;;;;;;36.10;19.05;;;;;;;2.64;100.00;100555.28;5030459;28;20041;-71
2023/12/08 08:13:15;;;;;;;33.50;21.27;;;;;;;2.66;100.00;100545.72;5030474;28;20114;-71
2023/12/08 08:15:42;;;;;;;35.47;19.45;;;;;;;2.68;100.00;100548.31;5030747;28;20072;-72
2023/12/08 08:18:09;;;;;;;41.08;21.08;;;;;;;2.70;100.00;100547.44;5030182;28;20132;-71
2023/12/08 08:20:36;;;;;;;34.30;21.38;;;;;;;2.71;100.00;100554.38;5031211;28;20560;-71
2023/12/08 08:23:04;;;;;;;40.92;20.98;;;;;;;2.74;100.00;100551.78;5029761;28;20148;-71
2023/12/08 08:25:31;;;;;;;38.75;21.65;;;;;;;2.75;100.00;100560.44;5029032;28;20052;-71
2023/12/08 08:28:00;;;;;;;40.47;20.08;;;;;;;2.77;100.00;100558.69;5030193;28;20091;-72
2023/12/08 08:30:27;;;;;;;42.03;19.45;;;;;;;2.78;100.00;100552.63;5011189;28;20056;-71
2023/12/08 08:32:54;;;;;;;41.53;22.20;;;;;;;2.78;100.00;100550.91;5013561;28;20459;-72
2023/12/08 08:35:21;;;;;;;41.92;20.58;;;;;;;2.82;100.00;100556.97;5031138;28;20045;-71
2023/12/08 08:37:48;;;;;;;36.85;20.98;;;;;;;2.83;100.00;100547.41;5030098;28;20545;-72
2023/12/08 08:40:15;;;;;;;40.85;23.17;;;;;;;2.84;100.00;100554.34;5047481;28;20052;-71
2023/12/08 08:42:42;;;;;;;38.67;21.08;;;;;;;2.85;100.00;100553.47;5047542;28;20047;-71
2023/12/08 08:45:10;;;;;;;41.55;21.63;;;;;;;2.87;100.00;100539.59;5025463;28;20046;-71
2023/12/08 08:47:37;;;;;;;40.50;20.58;;;;;;;2.90;100.00;100549.16;5008734;28;20052;-71
2023/12/08 08:50:05;;;;;;;36.53;20.95;;;;;;;2.93;100.00;100549.13;5010891;28;20045;-71
2023/12/08 08:52:35;;;;;;;43.70;21.05;;;;;;;2.95;100.00;100558.63;5009625;28;20498;-71
2023/12/08 08:55:04;;;;;;;43.47;22.13;;;;;;;2.95;100.00;100557.78;5028851;28;20045;-71
2023/12/08 08:57:32;;;;;;;45.17;22.50;;;;;;;2.96;100.00;100554.31;5028625;28;20045;-71
2023/12/08 08:59:59;;;;;;;46.63;22.67;;;;;;;2.99;100.00;100561.25;5044910;28;20148;-71
2023/12/08 09:02:27;;;;;;;42.83;24.75;;;;;;;2.99;100.00;100558.63;5029762;28;20118;-71
2023/12/08 09:04:54;;;;;;;43.03;23.10;;;;;;;3.03;100.00;100571.66;5033388;28;20044;-71
2023/12/08 09:07:22;;;;;;;42.70;23.17;;;;;;;3.04;100.00;100570.78;5049539;28;20036;-71
2023/12/08 09:09:50;;;;;;;38.83;21.67;;;;;;;3.07;100.00;100570.78;5048643;28;20045;-71
2023/12/08 09:12:17;;;;;;;38.72;21.13;;;;;;;3.10;100.00;100578.56;5054481;28;20110;-71
2023/12/08 09:14:44;;;;;;;48.15;24.58;;;;;;;3.14;100.00;100562.94;5030033;28;20047;-71
2023/12/08 09:17:11;;;;;;;47.67;21.88;;;;;;;3.15;100.00;100573.38;5028744;28;20037;-71
2023/12/08 09:19:38;;;;;;;39.25;21.08;;;;;;;3.17;100.00;100575.94;5028815;28;20063;-71
2023/12/08 09:22:05;;;;;;;45.15;22.45;;;;;;;3.18;100.00;100573.31;5029327;28;20041;-71
2023/12/08 09:24:33;;;;;;;41.80;23.52;;;;;;;3.22;100.00;100577.66;5025110;28;20077;-71
2023/12/08 09:27:01;;;;;;;39.80;22.40;;;;;;;3.28;100.00;100581.97;5029131;28;20262;-71
2023/12/08 09:29:28;;;;;;;45.28;24.70;;;;;;;3.31;100.00;100571.53;5042905;28;20049;-71
2023/12/08 09:31:55;;;;;;;47.00;23.15;;;;;;;3.34;100.00;100568.91;5028628;28;20168;-71
2023/12/08 09:34:22;;;;;;;48.15;23.00;;;;;;;3.39;100.00;100568.88;5027580;28;20460;-70
2023/12/08 09:36:49;;;;;;;45.25;24.00;;;;;;;3.40;100.00;100574.13;5029713;28;20045;-69
2023/12/08 09:39:37;;;;;;;41.80;23.17;;;;;;;3.46;100.00;100573.19;5041305;28;20045;-70
2023/12/08 09:42:31;;;;;;;53.90;24.90;;;;;;;3.51;100.00;100571.44;5028935;28;20548;-70
2023/12/08 09:45:00;;;;;;;54.47;23.88;;;;;;;3.55;100.00;100575.78;5042503;28;20449;-70
2023/12/08 09:47:29;;;;;;;44.60;24.08;;;;;;;3.61;100.00;100579.22;5025683;28;20851;-70
2023/12/08 09:50:00;;;;;;;61.33;25.48;;;;;;;3.65;100.00;100570.50;5028169;28;20567;-72
2023/12/08 09:52:29;;;;;;;52.38;25.63;;;;;;;3.67;100.00;100577.44;5028363;28;20045;-71
2023/12/08 09:54:58;;;;;;;52.55;23.42;;;;;;;3.73;100.00;100581.75;5028269;28;20174;-72
2023/12/08 09:57:31;;;;;;;54.28;23.17;;;;;;;3.78;100.00;100584.31;5028416;28;20107;-72
2023/12/08 10:00:02;;;;;;;50.88;23.88;;;;;;;3.81;100.00;100586.91;5029152;28;20118;-71
2023/12/08 10:02:30;;;;;;;52.65;25.25;;;;;;;3.84;100.00;100576.44;5028743;28;20049;-71
2023/12/08 10:04:57;;;;;;;70.35;32.72;;;;;;;3.91;100.00;100572.94;5033878;28;20107;-72
2023/12/08 10:07:31;;;;;;;84.18;52.58;;;;;;;3.96;100.00;100583.34;5035622;28;20042;-72
2023/12/08 10:10:00;;;;;;;81.30;31.23;;;;;;;3.99;100.00;100581.56;5026400;28;20716;-72
2023/12/08 10:12:27;;;;;;;101.78;43.47;;;;;;;4.04;100.00;100581.53;5018456;28;20049;-72
2023/12/08 10:14:58;;;;;;;73.15;32.17;;;;;;;4.09;100.00;100586.72;5035466;28;20424;-72
2023/12/08 10:17:26;;;;;;;58.72;32.30;;;;;;;4.12;100.00;100595.38;5032137;28;20129;-71
2023/12/08 10:20:11;;;;;;;61.72;33.72;;;;;;;4.18;100.00;100603.16;5026948;28;20085;-72
2023/12/08 10:22:54;;;;;;;85.50;42.58;;;;;;;4.24;100.00;100593.56;5027921;28;20041;-72
2023/12/08 10:25:24;;;;;;;69.53;33.20;;;;;;;4.27;100.00;100597.00;5027604;28;20128;-72
2023/12/08 10:27:57;;;;;;;82.18;30.52;;;;;;;4.31;100.00;100597.84;5010695;28;20546;-72
2023/12/08 10:30:26;;;;;;;77.90;32.97;;;;;;;4.36;100.00;100593.47;5028455;28;20049;-71
2023/12/08 10:32:54;;;;;;;101.47;40.30;;;;;;;4.40;100.00;100595.16;5026412;28;20056;-72
2023/12/08 10:35:22;;;;;;;94.60;50.40;;;;;;;4.46;100.00;100578.56;5027354;28;20038;-71
2023/12/08 10:37:50;;;;;;;73.63;33.97;;;;;;;4.53;100.00;100577.63;5024281;28;20542;-71
2023/12/08 10:40:18;;;;;;;90.40;31.42;;;;;;;4.57;100.00;100581.94;5013019;28;20045;-72
2023/12/08 10:42:47;;;;;;;75.78;32.60;;;;;;;4.61;100.00;100578.44;5025237;28;20049;-71
2023/12/08 10:45:17;;;;;;;76.20;30.23;;;;;;;4.63;100.00;100581.88;5010854;28;20056;-72
2023/12/08 10:47:45;;;;;;;75.88;35.85;;;;;;;4.67;100.00;100585.34;5028942;28;20129;-72
2023/12/08 10:50:13;;;;;;;65.15;28.75;;;;;;;4.72;100.00;100590.53;5028271;28;20128;-71
2023/12/08 10:52:41;;;;;;;59.78;26.23;;;;;;;4.76;100.00;100594.81;5021089;28;20076;-71
2023/12/08 10:55:10;;;;;;;65.85;29.63;;;;;;;4.81;100.00;100593.03;5025775;28;20056;-81
2023/12/08 10:57:39;;;;;;;85.60;31.13;;;;;;;4.86;100.00;100590.38;5028676;28;20233;-72
2023/12/08 11:00:18;;;;;;;70.32;32.13;;;;;;;4.94;100.00;100588.53;5026563;28;20119;-72
2023/12/08 11:02:48;;;;;;;80.20;28.65;;;;;;;5.00;100.00;100590.22;5028230;28;20047;-71
2023/12/08 11:05:29;;;;;;;67.22;26.63;;;;;;;5.04;100.00;100584.06;5035697;28;20064;-72
2023/12/08 11:08:00;;;;;;;68.78;30.00;;;;;;;5.07;100.00;100592.75;5032978;28;20048;-72
2023/12/08 11:10:34;;;;;;;90.72;42.38;;;;;;;5.13;100.00;100581.38;5025307;28;20124;-72
2023/12/08 11:13:37;;;;;;;109.47;54.95;;;;;;;5.22;100.00;100585.59;5026918;28;20065;-72